sensor_id;sensor_type;location;lat;lon;timestamp;P1;durP1;ratioP1;P2;durP2;ratioP2
48040;SDS011;33815;48.386;11.738;2022-11-30T00:01:13;49.53;;;22.48;;
48040;SDS011;33815;48.386;11.738;2022-11-30T00:03:41;51.55;;;23.17;;
48040;SDS011;33815;48.386;11.738;2022-11-30T00:06:07;45.55;;;21.65;;
48040;SDS011;33815;48.386;11.738;2022-11-30T00:08:34;46.00;;;22.38;;
48040;SDS011;33815;48.386;11.738;2022-11-30T00:11:05;48.22;;;22.67;;
48040;SDS011;33815;48.386;11.738;2022-11-30T00:13:32;48.75;;;22.35;;
48040;SDS011;33815;48.386;11.738;2022-11-30T00:16:00;47.17;;;21.83;;
48040;SDS011;33815;48.386;11.738;2022-11-30T00:18:25;45.75;;;20.70;;
48040;SDS011;33815;48.386;11.738;2022-11-30T00:20:50;46.20;;;22.30;;
48040;SDS011;33815;48.386;11.738;2022-11-30T00:23:16;43.00;;;20.30;;
48040;SDS011;33815;48.386;11.738;2022-11-30T00:25:41;48.90;;;22.13;;
48040;SDS011;33815;48.386;11.738;2022-11-30T00:28:06;48.88;;;22.77;;
48040;SDS011;33815;48.386;11.738;2022-11-30T00:30:32;45.03;;;22.33;;
48040;SDS011;33815;48.386;11.738;2022-11-30T00:32:57;56.00;;;22.40;;
48040;SDS011;33815;48.386;11.738;2022-11-30T00:35:22;54.65;;;22.70;;
48040;SDS011;33815;48.386;11.738;2022-11-30T00:37:48;44.55;;;21.67;;
48040;SDS011;33815;48.386;11.738;2022-11-30T00:40:13;54.13;;;24.30;;
48040;SDS011;33815;48.386;11.738;2022-11-30T00:42:39;49.22;;;23.80;;
48040;SDS011;33815;48.386;11.738;2022-11-30T00:45:04;51.85;;;24.98;;
48040;SDS011;33815;48.386;11.738;2022-11-30T00:47:30;49.13;;;24.75;;
48040;SDS011;33815;48.386;11.738;2022-11-30T00:49:56;56.30;;;24.58;;
48040;SDS011;33815;48.386;11.738;2022-11-30T00:52:22;57.50;;;25.67;;
48040;SDS011;33815;48.386;11.738;2022-11-30T00:54:47;43.53;;;22.30;;
48040;SDS011;33815;48.386;11.738;2022-11-30T00:57:12;56.10;;;24.52;;
48040;SDS011;33815;48.386;11.738;2022-11-30T00:59:37;53.17;;;25.63;;
48040;SDS011;33815;48.386;11.738;2022-11-30T01:02:03;56.72;;;25.05;;
48040;SDS011;33815;48.386;11.738;2022-11-30T01:04:28;48.53;;;23.48;;
48040;SDS011;33815;48.386;11.738;2022-11-30T01:06:53;49.70;;;24.10;;
48040;SDS011;33815;48.386;11.738;2022-11-30T01:09:18;53.85;;;25.88;;
48040;SDS011;33815;48.386;11.738;2022-11-30T01:11:44;57.13;;;24.52;;
48040;SDS011;33815;48.386;11.738;2022-11-30T01:14:09;53.10;;;24.42;;
48040;SDS011;33815;48.386;11.738;2022-11-30T01:16:34;49.83;;;21.98;;
48040;SDS011;33815;48.386;11.738;2022-11-30T01:19:00;53.45;;;23.42;;
48040;SDS011;33815;48.386;11.738;2022-11-30T01:21:26;52.25;;;25.23;;
48040;SDS011;33815;48.386;11.738;2022-11-30T01:23:52;50.25;;;23.23;;
48040;SDS011;33815;48.386;11.738;2022-11-30T01:26:18;55.88;;;24.08;;
48040;SDS011;33815;48.386;11.738;2022-11-30T01:28:48;48.63;;;21.45;;
48040;SDS011;33815;48.386;11.738;2022-11-30T01:31:15;49.03;;;24.00;;
48040;SDS011;33815;48.386;11.738;2022-11-30T01:33:41;52.15;;;23.60;;
48040;SDS011;33815;48.386;11.738;2022-11-30T01:36:14;52.00;;;24.13;;
48040;SDS011;33815;48.386;11.738;2022-11-30T01:38:42;51.92;;;24.15;;
48040;SDS011;33815;48.386;11.738;2022-11-30T01:41:12;56.35;;;24.50;;
48040;SDS011;33815;48.386;11.738;2022-11-30T01:43:46;52.67;;;23.40;;
48040;SDS011;33815;48.386;11.738;2022-11-30T01:46:16;51.95;;;23.98;;
48040;SDS011;33815;48.386;11.738;2022-11-30T01:51:38;48.95;;;23.73;;
48040;SDS011;33815;48.386;11.738;2022-11-30T01:54:10;55.67;;;26.02;;
48040;SDS011;33815;48.386;11.738;2022-11-30T01:56:39;48.47;;;24.10;;
48040;SDS011;33815;48.386;11.738;2022-11-30T01:59:08;47.13;;;21.80;;
48040;SDS011;33815;48.386;11.738;2022-11-30T02:01:35;49.70;;;23.25;;
48040;SDS011;33815;48.386;11.738;2022-11-30T02:04:02;56.63;;;25.30;;
48040;SDS011;33815;48.386;11.738;2022-11-30T02:06:32;52.05;;;24.10;;
48040;SDS011;33815;48.386;11.738;2022-11-30T02:08:58;56.05;;;23.52;;
48040;SDS011;33815;48.386;11.738;2022-11-30T02:11:23;51.47;;;23.73;;
48040;SDS011;33815;48.386;11.738;2022-11-30T02:13:57;52.33;;;24.20;;
48040;SDS011;33815;48.386;11.738;2022-11-30T02:25:18;50.90;;;22.10;;
48040;SDS011;33815;48.386;11.738;2022-11-30T02:30:17;54.90;;;25.30;;
48040;SDS011;33815;48.386;11.738;2022-11-30T02:33:27;49.47;;;24.08;;
48040;SDS011;33815;48.386;11.738;2022-11-30T02:35:38;53.28;;;23.15;;
48040;SDS011;33815;48.386;11.738;2022-11-30T02:38:06;50.95;;;24.75;;
48040;SDS011;33815;48.386;11.738;2022-11-30T02:40:33;55.67;;;25.88;;
48040;SDS011;33815;48.386;11.738;2022-11-30T02:42:59;48.47;;;23.08;;
48040;SDS011;33815;48.386;11.738;2022-11-30T02:51:17;58.88;;;26.20;;
48040;SDS011;33815;48.386;11.738;2022-11-30T02:53:46;47.78;;;24.23;;
48040;SDS011;33815;48.386;11.738;2022-11-30T02:56:12;53.80;;;24.50;;
48040;SDS011;33815;48.386;11.738;2022-11-30T02:58:38;51.88;;;23.35;;
48040;SDS011;33815;48.386;11.738;2022-11-30T03:01:03;56.90;;;25.13;;
48040;SDS011;33815;48.386;11.738;2022-11-30T03:03:29;53.97;;;23.80;;
48040;SDS011;33815;48.386;11.738;2022-11-30T03:05:54;61.50;;;25.35;;
48040;SDS011;33815;48.386;11.738;2022-11-30T03:08:19;60.22;;;25.88;;
48040;SDS011;33815;48.386;11.738;2022-11-30T03:10:45;59.35;;;25.88;;
48040;SDS011;33815;48.386;11.738;2022-11-30T03:13:10;50.67;;;26.17;;
48040;SDS011;33815;48.386;11.738;2022-11-30T03:15:35;58.92;;;26.90;;
48040;SDS011;33815;48.386;11.738;2022-11-30T03:18:01;59.55;;;26.35;;
48040;SDS011;33815;48.386;11.738;2022-11-30T03:20:27;55.40;;;24.55;;
48040;SDS011;33815;48.386;11.738;2022-11-30T03:22:52;59.42;;;27.35;;
48040;SDS011;33815;48.386;11.738;2022-11-30T03:25:18;55.92;;;23.67;;
48040;SDS011;33815;48.386;11.738;2022-11-30T03:27:43;53.22;;;24.35;;
48040;SDS011;33815;48.386;11.738;2022-11-30T03:30:08;50.70;;;23.70;;
48040;SDS011;33815;48.386;11.738;2022-11-30T03:32:34;58.00;;;24.70;;
48040;SDS011;33815;48.386;11.738;2022-11-30T03:34:59;49.15;;;22.80;;
48040;SDS011;33815;48.386;11.738;2022-11-30T03:37:24;58.72;;;26.65;;
48040;SDS011;33815;48.386;11.738;2022-11-30T03:39:50;59.08;;;26.40;;
48040;SDS011;33815;48.386;11.738;2022-11-30T03:42:15;50.42;;;24.73;;
48040;SDS011;33815;48.386;11.738;2022-11-30T03:44:40;60.00;;;26.35;;
48040;SDS011;33815;48.386;11.738;2022-11-30T03:47:05;49.70;;;23.90;;
48040;SDS011;33815;48.386;11.738;2022-11-30T03:49:31;56.72;;;24.10;;
48040;SDS011;33815;48.386;11.738;2022-11-30T03:51:56;51.72;;;24.33;;
48040;SDS011;33815;48.386;11.738;2022-11-30T03:54:21;57.28;;;24.92;;
48040;SDS011;33815;48.386;11.738;2022-11-30T03:56:46;54.92;;;24.90;;
48040;SDS011;33815;48.386;11.738;2022-11-30T03:59:12;45.05;;;21.42;;
48040;SDS011;33815;48.386;11.738;2022-11-30T04:01:37;46.20;;;22.58;;
48040;SDS011;33815;48.386;11.738;2022-11-30T04:04:05;54.60;;;25.50;;
48040;SDS011;33815;48.386;11.738;2022-11-30T04:06:31;58.42;;;25.70;;
48040;SDS011;33815;48.386;11.738;2022-11-30T04:08:56;51.80;;;23.65;;
48040;SDS011;33815;48.386;11.738;2022-11-30T04:11:22;52.45;;;24.67;;
48040;SDS011;33815;48.386;11.738;2022-11-30T04:13:47;46.50;;;23.73;;
48040;SDS011;33815;48.386;11.738;2022-11-30T04:16:12;51.30;;;24.63;;
48040;SDS011;33815;48.386;11.738;2022-11-30T04:18:38;51.92;;;23.20;;
48040;SDS011;33815;48.386;11.738;2022-11-30T04:21:03;55.17;;;24.30;;
48040;SDS011;33815;48.386;11.738;2022-11-30T04:23:31;40.35;;;20.90;;
48040;SDS011;33815;48.386;11.738;2022-11-30T04:25:59;52.63;;;23.75;;
48040;SDS011;33815;48.386;11.738;2022-11-30T04:28:25;56.67;;;25.80;;
48040;SDS011;33815;48.386;11.738;2022-11-30T04:30:52;61.58;;;26.02;;
48040;SDS011;33815;48.386;11.738;2022-11-30T04:33:18;50.60;;;23.80;;
48040;SDS011;33815;48.386;11.738;2022-11-30T04:35:47;52.63;;;23.92;;
48040;SDS011;33815;48.386;11.738;2022-11-30T04:38:15;57.50;;;24.08;;
48040;SDS011;33815;48.386;11.738;2022-11-30T04:40:41;53.83;;;23.90;;
48040;SDS011;33815;48.386;11.738;2022-11-30T04:43:08;51.25;;;24.45;;
48040;SDS011;33815;48.386;11.738;2022-11-30T04:45:34;49.63;;;23.60;;
48040;SDS011;33815;48.386;11.738;2022-11-30T04:47:59;52.28;;;22.80;;
48040;SDS011;33815;48.386;11.738;2022-11-30T04:50:24;60.35;;;26.63;;
48040;SDS011;33815;48.386;11.738;2022-11-30T04:52:50;61.05;;;27.40;;
48040;SDS011;33815;48.386;11.738;2022-11-30T04:55:15;47.60;;;23.95;;
48040;SDS011;33815;48.386;11.738;2022-11-30T04:57:44;56.50;;;26.00;;
48040;SDS011;33815;48.386;11.738;2022-11-30T05:00:10;53.28;;;23.20;;
48040;SDS011;33815;48.386;11.738;2022-11-30T05:02:37;53.47;;;24.63;;
48040;SDS011;33815;48.386;11.738;2022-11-30T05:05:02;48.70;;;22.58;;
48040;SDS011;33815;48.386;11.738;2022-11-30T05:07:27;53.20;;;23.98;;
48040;SDS011;33815;48.386;11.738;2022-11-30T05:09:53;53.90;;;25.35;;
48040;SDS011;33815;48.386;11.738;2022-11-30T05:12:18;54.25;;;25.05;;
48040;SDS011;33815;48.386;11.738;2022-11-30T05:14:43;53.10;;;24.17;;
48040;SDS011;33815;48.386;11.738;2022-11-30T05:17:08;47.38;;;24.17;;
48040;SDS011;33815;48.386;11.738;2022-11-30T05:19:34;54.05;;;25.20;;
48040;SDS011;33815;48.386;11.738;2022-11-30T05:21:59;59.40;;;24.80;;
48040;SDS011;33815;48.386;11.738;2022-11-30T05:24:24;51.28;;;24.05;;
48040;SDS011;33815;48.386;11.738;2022-11-30T05:26:50;60.33;;;27.20;;
48040;SDS011;33815;48.386;11.738;2022-11-30T05:29:15;68.28;;;26.80;;
48040;SDS011;33815;48.386;11.738;2022-11-30T05:31:40;50.78;;;25.05;;
48040;SDS011;33815;48.386;11.738;2022-11-30T05:34:05;61.30;;;26.45;;
48040;SDS011;33815;48.386;11.738;2022-11-30T05:36:31;47.30;;;22.85;;
48040;SDS011;33815;48.386;11.738;2022-11-30T05:38:56;51.78;;;25.00;;
48040;SDS011;33815;48.386;11.738;2022-11-30T05:41:21;53.08;;;26.00;;
48040;SDS011;33815;48.386;11.738;2022-11-30T05:43:47;58.85;;;25.38;;
48040;SDS011;33815;48.386;11.738;2022-11-30T05:46:12;56.78;;;25.58;;
48040;SDS011;33815;48.386;11.738;2022-11-30T05:48:37;48.75;;;23.67;;
48040;SDS011;33815;48.386;11.738;2022-11-30T05:51:03;58.90;;;26.45;;
48040;SDS011;33815;48.386;11.738;2022-11-30T05:53:30;57.85;;;26.85;;
48040;SDS011;33815;48.386;11.738;2022-11-30T05:55:59;52.83;;;25.20;;
48040;SDS011;33815;48.386;11.738;2022-11-30T05:58:26;52.95;;;24.92;;
48040;SDS011;33815;48.386;11.738;2022-11-30T06:00:51;50.47;;;25.75;;
48040;SDS011;33815;48.386;11.738;2022-11-30T06:03:16;55.83;;;24.58;;
48040;SDS011;33815;48.386;11.738;2022-11-30T06:05:41;51.05;;;25.50;;
48040;SDS011;33815;48.386;11.738;2022-11-30T06:08:07;54.50;;;24.73;;
48040;SDS011;33815;48.386;11.738;2022-11-30T06:10:32;60.58;;;25.70;;
48040;SDS011;33815;48.386;11.738;2022-11-30T06:12:57;52.58;;;24.40;;
48040;SDS011;33815;48.386;11.738;2022-11-30T06:15:22;49.92;;;23.27;;
48040;SDS011;33815;48.386;11.738;2022-11-30T06:17:48;57.45;;;25.67;;
48040;SDS011;33815;48.386;11.738;2022-11-30T06:20:13;52.08;;;23.55;;
48040;SDS011;33815;48.386;11.738;2022-11-30T06:22:38;51.20;;;23.02;;
48040;SDS011;33815;48.386;11.738;2022-11-30T06:25:04;56.67;;;25.05;;
48040;SDS011;33815;48.386;11.738;2022-11-30T06:27:30;57.83;;;25.90;;
48040;SDS011;33815;48.386;11.738;2022-11-30T06:29:56;60.75;;;24.13;;
48040;SDS011;33815;48.386;11.738;2022-11-30T06:32:21;53.47;;;25.40;;
48040;SDS011;33815;48.386;11.738;2022-11-30T06:34:46;47.15;;;22.02;;
48040;SDS011;33815;48.386;11.738;2022-11-30T06:37:12;47.40;;;22.85;;
48040;SDS011;33815;48.386;11.738;2022-11-30T06:39:37;48.85;;;23.42;;
48040;SDS011;33815;48.386;11.738;2022-11-30T06:42:02;54.05;;;25.10;;
48040;SDS011;33815;48.386;11.738;2022-11-30T06:44:27;56.60;;;23.63;;
48040;SDS011;33815;48.386;11.738;2022-11-30T06:46:53;57.47;;;23.77;;
48040;SDS011;33815;48.386;11.738;2022-11-30T06:49:18;52.63;;;24.40;;
48040;SDS011;33815;48.386;11.738;2022-11-30T06:51:43;55.05;;;25.33;;
48040;SDS011;33815;48.386;11.738;2022-11-30T06:54:09;57.42;;;25.58;;
48040;SDS011;33815;48.386;11.738;2022-11-30T06:56:34;56.97;;;24.08;;
48040;SDS011;33815;48.386;11.738;2022-11-30T06:58:59;50.58;;;22.98;;
48040;SDS011;33815;48.386;11.738;2022-11-30T07:01:24;54.67;;;25.23;;
48040;SDS011;33815;48.386;11.738;2022-11-30T07:03:49;55.60;;;24.90;;
48040;SDS011;33815;48.386;11.738;2022-11-30T07:06:15;50.75;;;24.05;;
48040;SDS011;33815;48.386;11.738;2022-11-30T07:08:41;51.20;;;22.05;;
48040;SDS011;33815;48.386;11.738;2022-11-30T07:11:07;50.58;;;21.48;;
48040;SDS011;33815;48.386;11.738;2022-11-30T07:13:34;49.72;;;21.77;;
48040;SDS011;33815;48.386;11.738;2022-11-30T07:16:06;52.25;;;23.67;;
48040;SDS011;33815;48.386;11.738;2022-11-30T07:18:34;50.88;;;24.23;;
48040;SDS011;33815;48.386;11.738;2022-11-30T07:21:00;53.45;;;25.75;;
48040;SDS011;33815;48.386;11.738;2022-11-30T07:23:27;55.35;;;24.35;;
48040;SDS011;33815;48.386;11.738;2022-11-30T07:26:11;48.72;;;23.35;;
48040;SDS011;33815;48.386;11.738;2022-11-30T07:28:45;51.40;;;22.75;;
48040;SDS011;33815;48.386;11.738;2022-11-30T07:31:15;53.97;;;25.52;;
48040;SDS011;33815;48.386;11.738;2022-11-30T07:33:43;53.53;;;23.65;;
48040;SDS011;33815;48.386;11.738;2022-11-30T07:36:08;56.33;;;25.30;;
48040;SDS011;33815;48.386;11.738;2022-11-30T07:38:34;53.80;;;25.45;;
48040;SDS011;33815;48.386;11.738;2022-11-30T07:40:59;53.55;;;26.35;;
48040;SDS011;33815;48.386;11.738;2022-11-30T07:43:26;52.22;;;24.02;;
48040;SDS011;33815;48.386;11.738;2022-11-30T07:45:52;51.55;;;23.90;;
48040;SDS011;33815;48.386;11.738;2022-11-30T07:48:18;49.90;;;22.80;;
48040;SDS011;33815;48.386;11.738;2022-11-30T07:50:44;54.50;;;23.20;;
48040;SDS011;33815;48.386;11.738;2022-11-30T07:53:09;48.53;;;22.88;;
48040;SDS011;33815;48.386;11.738;2022-11-30T07:55:34;46.33;;;23.35;;
48040;SDS011;33815;48.386;11.738;2022-11-30T07:57:59;49.33;;;21.90;;
48040;SDS011;33815;48.386;11.738;2022-11-30T08:00:25;51.00;;;23.95;;
48040;SDS011;33815;48.386;11.738;2022-11-30T08:02:50;48.97;;;23.45;;
48040;SDS011;33815;48.386;11.738;2022-11-30T08:05:16;50.00;;;23.65;;
48040;SDS011;33815;48.386;11.738;2022-11-30T08:07:41;49.47;;;23.05;;
48040;SDS011;33815;48.386;11.738;2022-11-30T08:10:06;50.47;;;22.38;;
48040;SDS011;33815;48.386;11.738;2022-11-30T08:12:32;49.85;;;21.30;;
48040;SDS011;33815;48.386;11.738;2022-11-30T08:14:58;46.08;;;22.52;;
48040;SDS011;33815;48.386;11.738;2022-11-30T08:17:23;44.80;;;21.92;;
48040;SDS011;33815;48.386;11.738;2022-11-30T08:19:48;47.25;;;22.92;;
48040;SDS011;33815;48.386;11.738;2022-11-30T08:22:13;50.15;;;21.67;;
48040;SDS011;33815;48.386;11.738;2022-11-30T08:24:39;46.05;;;22.23;;
48040;SDS011;33815;48.386;11.738;2022-11-30T08:27:04;51.28;;;24.38;;
48040;SDS011;33815;48.386;11.738;2022-11-30T08:29:29;52.72;;;24.65;;
48040;SDS011;33815;48.386;11.738;2022-11-30T08:31:54;49.17;;;22.50;;
48040;SDS011;33815;48.386;11.738;2022-11-30T08:34:20;43.22;;;21.83;;
48040;SDS011;33815;48.386;11.738;2022-11-30T08:36:45;46.88;;;22.70;;
48040;SDS011;33815;48.386;11.738;2022-11-30T08:39:11;50.63;;;23.58;;
48040;SDS011;33815;48.386;11.738;2022-11-30T08:41:36;52.22;;;22.58;;
48040;SDS011;33815;48.386;11.738;2022-11-30T08:44:03;41.55;;;20.88;;
48040;SDS011;33815;48.386;11.738;2022-11-30T08:46:28;51.97;;;22.77;;
48040;SDS011;33815;48.386;11.738;2022-11-30T08:48:54;41.53;;;22.23;;
48040;SDS011;33815;48.386;11.738;2022-11-30T08:51:19;48.63;;;22.20;;
48040;SDS011;33815;48.386;11.738;2022-11-30T08:53:45;43.35;;;21.48;;
48040;SDS011;33815;48.386;11.738;2022-11-30T08:56:13;41.55;;;21.40;;
48040;SDS011;33815;48.386;11.738;2022-11-30T08:58:40;42.00;;;21.08;;
48040;SDS011;33815;48.386;11.738;2022-11-30T09:03:32;48.70;;;22.92;;
48040;SDS011;33815;48.386;11.738;2022-11-30T09:08:58;42.92;;;20.52;;
48040;SDS011;33815;48.386;11.738;2022-11-30T09:11:24;41.10;;;20.27;;
48040;SDS011;33815;48.386;11.738;2022-11-30T09:13:55;44.67;;;22.98;;
48040;SDS011;33815;48.386;11.738;2022-11-30T09:16:22;40.72;;;21.80;;
48040;SDS011;33815;48.386;11.738;2022-11-30T09:18:48;41.25;;;21.50;;
48040;SDS011;33815;48.386;11.738;2022-11-30T09:21:15;45.95;;;22.58;;
48040;SDS011;33815;48.386;11.738;2022-11-30T09:23:45;37.72;;;21.35;;
48040;SDS011;33815;48.386;11.738;2022-11-30T09:26:12;43.10;;;19.58;;
48040;SDS011;33815;48.386;11.738;2022-11-30T09:28:40;39.47;;;21.13;;
48040;SDS011;33815;48.386;11.738;2022-11-30T09:31:12;44.22;;;21.70;;
48040;SDS011;33815;48.386;11.738;2022-11-30T09:33:43;38.28;;;20.80;;
48040;SDS011;33815;48.386;11.738;2022-11-30T09:36:10;42.42;;;21.27;;
48040;SDS011;33815;48.386;11.738;2022-11-30T09:38:37;36.42;;;19.80;;
48040;SDS011;33815;48.386;11.738;2022-11-30T09:49:21;39.38;;;20.85;;
48040;SDS011;33815;48.386;11.738;2022-11-30T09:52:17;38.63;;;20.45;;
48040;SDS011;33815;48.386;11.738;2022-11-30T09:54:56;40.05;;;19.70;;
48040;SDS011;33815;48.386;11.738;2022-11-30T09:57:33;42.70;;;20.30;;
48040;SDS011;33815;48.386;11.738;2022-11-30T10:02:43;38.30;;;20.88;;
48040;SDS011;33815;48.386;11.738;2022-11-30T10:05:20;52.85;;;28.55;;
48040;SDS011;33815;48.386;11.738;2022-11-30T10:07:55;46.20;;;24.55;;
48040;SDS011;33815;48.386;11.738;2022-11-30T10:16:30;46.60;;;21.52;;
48040;SDS011;33815;48.386;11.738;2022-11-30T10:20:12;38.63;;;20.17;;
48040;SDS011;33815;48.386;11.738;2022-11-30T10:22:15;42.50;;;20.70;;
48040;SDS011;33815;48.386;11.738;2022-11-30T10:25:02;37.28;;;20.75;;
48040;SDS011;33815;48.386;11.738;2022-11-30T10:30:24;35.55;;;18.70;;
48040;SDS011;33815;48.386;11.738;2022-11-30T10:32:55;35.55;;;18.92;;
48040;SDS011;33815;48.386;11.738;2022-11-30T10:35:42;36.17;;;18.73;;
48040;SDS011;33815;48.386;11.738;2022-11-30T10:38:28;38.72;;;18.75;;
48040;SDS011;33815;48.386;11.738;2022-11-30T10:40:59;31.58;;;18.60;;
48040;SDS011;33815;48.386;11.738;2022-11-30T10:43:52;37.72;;;19.98;;
48040;SDS011;33815;48.386;11.738;2022-11-30T10:46:25;35.20;;;18.50;;
48040;SDS011;33815;48.386;11.738;2022-11-30T10:49:04;32.33;;;17.48;;
48040;SDS011;33815;48.386;11.738;2022-11-30T10:51:35;34.95;;;18.00;;
48040;SDS011;33815;48.386;11.738;2022-11-30T10:54:06;34.35;;;17.88;;
48040;SDS011;33815;48.386;11.738;2022-11-30T10:56:38;36.00;;;18.05;;
48040;SDS011;33815;48.386;11.738;2022-11-30T10:59:09;34.30;;;18.88;;
48040;SDS011;33815;48.386;11.738;2022-11-30T11:01:38;28.17;;;16.25;;
48040;SDS011;33815;48.386;11.738;2022-11-30T11:04:06;28.83;;;16.40;;
48040;SDS011;33815;48.386;11.738;2022-11-30T11:06:32;27.08;;;15.73;;
48040;SDS011;33815;48.386;11.738;2022-11-30T11:08:57;25.23;;;14.43;;
48040;SDS011;33815;48.386;11.738;2022-11-30T11:11:31;30.58;;;16.70;;
48040;SDS011;33815;48.386;11.738;2022-11-30T11:14:16;30.27;;;15.85;;
48040;SDS011;33815;48.386;11.738;2022-11-30T11:16:53;32.08;;;14.50;;
48040;SDS011;33815;48.386;11.738;2022-11-30T11:19:22;25.58;;;14.57;;
48040;SDS011;33815;48.386;11.738;2022-11-30T11:21:49;25.13;;;14.40;;
48040;SDS011;33815;48.386;11.738;2022-11-30T11:24:15;29.05;;;14.63;;
48040;SDS011;33815;48.386;11.738;2022-11-30T11:26:49;27.33;;;14.75;;
48040;SDS011;33815;48.386;11.738;2022-11-30T11:29:23;27.17;;;14.75;;
48040;SDS011;33815;48.386;11.738;2022-11-30T11:32:04;25.92;;;14.30;;
48040;SDS011;33815;48.386;11.738;2022-11-30T11:34:40;27.35;;;15.00;;
48040;SDS011;33815;48.386;11.738;2022-11-30T11:39:57;24.17;;;13.63;;
48040;SDS011;33815;48.386;11.738;2022-11-30T11:42:22;24.23;;;14.27;;
48040;SDS011;33815;48.386;11.738;2022-11-30T11:44:49;24.98;;;13.30;;
48040;SDS011;33815;48.386;11.738;2022-11-30T11:47:23;23.42;;;13.07;;
48040;SDS011;33815;48.386;11.738;2022-11-30T11:53:11;22.75;;;12.73;;
48040;SDS011;33815;48.386;11.738;2022-11-30T11:58:26;22.95;;;13.10;;
48040;SDS011;33815;48.386;11.738;2022-11-30T12:00:59;22.80;;;13.10;;
48040;SDS011;33815;48.386;11.738;2022-11-30T12:03:32;24.83;;;13.65;;
48040;SDS011;33815;48.386;11.738;2022-11-30T12:06:04;21.53;;;12.83;;
48040;SDS011;33815;48.386;11.738;2022-11-30T12:08:44;23.30;;;13.02;;
48040;SDS011;33815;48.386;11.738;2022-11-30T12:11:21;21.55;;;13.48;;
48040;SDS011;33815;48.386;11.738;2022-11-30T12:14:09;29.15;;;14.23;;
48040;SDS011;33815;48.386;11.738;2022-11-30T12:16:43;24.33;;;13.88;;
48040;SDS011;33815;48.386;11.738;2022-11-30T12:19:22;22.63;;;12.65;;
48040;SDS011;33815;48.386;11.738;2022-11-30T12:22:03;25.42;;;14.32;;
48040;SDS011;33815;48.386;11.738;2022-11-30T12:24:46;26.38;;;14.27;;
48040;SDS011;33815;48.386;11.738;2022-11-30T12:33:11;25.58;;;14.07;;
48040;SDS011;33815;48.386;11.738;2022-11-30T12:35:49;22.38;;;14.48;;
48040;SDS011;33815;48.386;11.738;2022-11-30T12:44:31;28.15;;;14.50;;
48040;SDS011;33815;48.386;11.738;2022-11-30T12:49:55;26.30;;;13.82;;
48040;SDS011;33815;48.386;11.738;2022-11-30T13:01:25;25.85;;;13.25;;
48040;SDS011;33815;48.386;11.738;2022-11-30T13:04:05;23.08;;;12.88;;
48040;SDS011;33815;48.386;11.738;2022-11-30T13:09:26;24.65;;;12.75;;
48040;SDS011;33815;48.386;11.738;2022-11-30T13:11:57;18.58;;;11.82;;
48040;SDS011;33815;48.386;11.738;2022-11-30T13:14:27;25.20;;;13.70;;
48040;SDS011;33815;48.386;11.738;2022-11-30T13:17:01;26.05;;;14.30;;
48040;SDS011;33815;48.386;11.738;2022-11-30T13:22:11;29.20;;;14.02;;
48040;SDS011;33815;48.386;11.738;2022-11-30T13:24:49;28.00;;;14.15;;
48040;SDS011;33815;48.386;11.738;2022-11-30T13:27:28;22.52;;;13.35;;
48040;SDS011;33815;48.386;11.738;2022-11-30T13:30:12;23.58;;;14.55;;
48040;SDS011;33815;48.386;11.738;2022-11-30T13:32:45;28.92;;;15.35;;
48040;SDS011;33815;48.386;11.738;2022-11-30T13:38:01;23.08;;;13.32;;
48040;SDS011;33815;48.386;11.738;2022-11-30T13:40:59;24.88;;;14.15;;
48040;SDS011;33815;48.386;11.738;2022-11-30T13:43:27;24.40;;;14.15;;
48040;SDS011;33815;48.386;11.738;2022-11-30T13:46:02;27.42;;;15.00;;
48040;SDS011;33815;48.386;11.738;2022-11-30T13:48:33;29.08;;;16.33;;
48040;SDS011;33815;48.386;11.738;2022-11-30T13:51:03;31.15;;;15.85;;
48040;SDS011;33815;48.386;11.738;2022-11-30T13:53:30;23.30;;;13.77;;
48040;SDS011;33815;48.386;11.738;2022-11-30T13:59:18;24.83;;;13.48;;
48040;SDS011;33815;48.386;11.738;2022-11-30T14:01:52;26.10;;;14.43;;
48040;SDS011;33815;48.386;11.738;2022-11-30T14:04:44;26.65;;;15.70;;
48040;SDS011;33815;48.386;11.738;2022-11-30T14:09:57;28.75;;;15.05;;
48040;SDS011;33815;48.386;11.738;2022-11-30T14:14:59;26.55;;;14.40;;
48040;SDS011;33815;48.386;11.738;2022-11-30T14:17:26;24.05;;;14.05;;
48040;SDS011;33815;48.386;11.738;2022-11-30T14:20:04;25.27;;;13.50;;
48040;SDS011;33815;48.386;11.738;2022-11-30T14:22:38;25.17;;;14.57;;
48040;SDS011;33815;48.386;11.738;2022-11-30T14:25:06;27.00;;;13.88;;
48040;SDS011;33815;48.386;11.738;2022-11-30T14:27:38;26.38;;;13.50;;
48040;SDS011;33815;48.386;11.738;2022-11-30T14:30:04;25.92;;;14.02;;
48040;SDS011;33815;48.386;11.738;2022-11-30T14:35:11;26.23;;;14.25;;
48040;SDS011;33815;48.386;11.738;2022-11-30T14:38:01;24.67;;;14.45;;
48040;SDS011;33815;48.386;11.738;2022-11-30T14:40:28;24.98;;;13.85;;
48040;SDS011;33815;48.386;11.738;2022-11-30T14:42:56;26.63;;;14.77;;
48040;SDS011;33815;48.386;11.738;2022-11-30T14:47:51;26.83;;;14.10;;
48040;SDS011;33815;48.386;11.738;2022-11-30T14:50:27;29.13;;;15.10;;
48040;SDS011;33815;48.386;11.738;2022-11-30T14:53:02;28.35;;;16.52;;
48040;SDS011;33815;48.386;11.738;2022-11-30T14:55:46;30.30;;;14.60;;
48040;SDS011;33815;48.386;11.738;2022-11-30T15:00:53;25.48;;;13.65;;
48040;SDS011;33815;48.386;11.738;2022-11-30T15:05:58;26.33;;;14.45;;
48040;SDS011;33815;48.386;11.738;2022-11-30T15:08:35;25.88;;;14.82;;
48040;SDS011;33815;48.386;11.738;2022-11-30T15:11:07;26.95;;;13.70;;
48040;SDS011;33815;48.386;11.738;2022-11-30T15:13:42;27.58;;;14.43;;
48040;SDS011;33815;48.386;11.738;2022-11-30T15:16:16;27.48;;;14.82;;
48040;SDS011;33815;48.386;11.738;2022-11-30T15:18:44;26.10;;;14.38;;
48040;SDS011;33815;48.386;11.738;2022-11-30T15:21:14;28.85;;;17.15;;
48040;SDS011;33815;48.386;11.738;2022-11-30T15:23:44;26.60;;;14.65;;
48040;SDS011;33815;48.386;11.738;2022-11-30T15:26:13;26.42;;;14.57;;
48040;SDS011;33815;48.386;11.738;2022-11-30T15:28:43;25.63;;;13.90;;
48040;SDS011;33815;48.386;11.738;2022-11-30T15:33:45;26.80;;;14.90;;
48040;SDS011;33815;48.386;11.738;2022-11-30T15:36:12;27.80;;;14.75;;
48040;SDS011;33815;48.386;11.738;2022-11-30T15:38:38;23.13;;;13.45;;
48040;SDS011;33815;48.386;11.738;2022-11-30T15:41:14;23.90;;;13.93;;
48040;SDS011;33815;48.386;11.738;2022-11-30T15:43:43;25.23;;;13.77;;
48040;SDS011;33815;48.386;11.738;2022-11-30T15:49:24;22.52;;;13.05;;
48040;SDS011;33815;48.386;11.738;2022-11-30T15:57:56;24.15;;;13.27;;
48040;SDS011;33815;48.386;11.738;2022-11-30T16:00:23;26.73;;;15.10;;
48040;SDS011;33815;48.386;11.738;2022-11-30T16:02:49;27.75;;;14.18;;
48040;SDS011;33815;48.386;11.738;2022-11-30T16:05:39;21.77;;;12.90;;
48040;SDS011;33815;48.386;11.738;2022-11-30T16:08:20;25.83;;;14.70;;
48040;SDS011;33815;48.386;11.738;2022-11-30T16:10:45;27.05;;;14.75;;
48040;SDS011;33815;48.386;11.738;2022-11-30T16:13:11;23.42;;;13.13;;
48040;SDS011;33815;48.386;11.738;2022-11-30T16:15:44;24.55;;;13.65;;